Thunder radar more information blitzortung!


Radar de pluja more information rain snow radar


Visita la nostra xarxa de llocs de meteo:

Template documentation
and downloads

And another site



No particular awareness of the weather is required.    There are no Weather-warnings

Pagina Historial Weather Underground text

Diari Resum Juliol 23, 2017 Unitats:  Imperial    Mètric   Tant
« Previous Dia
SegĂźent Dia »
Diari Setmana Mensual Anual Personalitzada
  Maxima: Minima: Media:
Temperatura: 83.7 °F 63.1 °F 74.1 °F
Punt de rosada: 68.2 °F 58.6 °F 63.7 °F
Humitat: 94 % 50 % 72 %
Wind Speed: 23 mph 0 mph 3.9 mph
RĂ fegues de vent: 23 mph - -
Vent:- - SE
Pression baro: 30.1 in 29.9 in -
Precipitacions: 0.21 in    
Historical Graphs
 
 
Dades de taula per Juliol 23, 2017
Temps Temperatura Punt de rosada Pression baro Vent Wind Speed RĂ fegues de vent Humitat Rainfall Rate (Hourly)
00:00 72.5 °F 64.9 °F 30 in NNE 1 mph 1 mph 77 % 0 in
00:02 75.6 °F 64.2 °F 30 in WSW 1.2 mph   68 % 0 in
00:10 72.5 °F 64.9 °F 30 in Calm   2 mph 77 % 0 in
00:20 72.5 °F 64.9 °F 30 in Calm   1 mph 77 % 0 in
00:30 72.5 °F 65.1 °F 30 in NE 1 mph 1 mph 78 % 0 in
00:40 72.3 °F 65.1 °F 30 in NE 1 mph 3 mph 78 % 0 in
00:50 72.3 °F 65.1 °F 30 in NE 1 mph 2 mph 78 % 0 in
01:00 72.5 °F 65.1 °F 30 in NE 2 mph 3 mph 78 % 0 in
01:10 72.5 °F 65.1 °F 30 in NE 2 mph 3 mph 78 % 0 in
01:20 72.5 °F 65.7 °F 30 in NE 1 mph 2 mph 79 % 0 in
01:30 72.3 °F 65.5 °F 30 in NE 2 mph 3 mph 79 % 0 in
01:40 72.3 °F 65.5 °F 30 in NNE 3 mph 4 mph 79 % 0 in
01:50 72.5 °F 65.7 °F 30 in NNE 3 mph 4 mph 79 % 0 in
02:00 72.5 °F 66 °F 30 in NE 3 mph 4 mph 80 % 0 in
02:10 72.7 °F 66.2 °F 30 in NNE 1 mph 3 mph 80 % 0 in
02:20 72.7 °F 66.2 °F 30 in Calm   3 mph 80 % 0 in
02:30 72.9 °F 66.4 °F 30.1 in Calm   1 mph 80 % 0 in
02:40 73 °F 66.6 °F 30.1 in NE 2 mph 2 mph 80 % 0 in
02:50 73.4 °F 66.6 °F 30.1 in NE 1 mph 3 mph 79 % 0 in
03:00 73.8 °F 66.6 °F 30.1 in NE 2 mph 2 mph 78 % 0 in
03:10 74.7 °F 67.3 °F 30.1 in NE 1 mph 2 mph 78 % 0 in
03:20 75 °F 67.3 °F 30.1 in NE 2 mph 3 mph 77 % 0 in
03:30 75.9 °F 67.8 °F 30.1 in NE 2 mph 3 mph 76 % 0 in
03:40 76.6 °F 68.2 °F 30.1 in NE 2 mph 3 mph 75 % 0 in
03:50 76.5 °F 67.6 °F 30.1 in NE 3 mph 4 mph 74 % 0 in
04:00 77.2 °F 67.5 °F 30.1 in NE 2 mph 3 mph 72 % 0 in
04:10 77.7 °F 67.3 °F 30.1 in East 2 mph 3 mph 70 % 0 in
04:20 77.4 °F 66.7 °F 30.1 in ESE 2 mph 4 mph 70 % 0 in
04:30 77.4 °F 66.7 °F 30.1 in SE 1 mph 2 mph 70 % 0 in
04:40 77.5 °F 66.9 °F 30.1 in South 2 mph 2 mph 70 % 0 in
04:50 78.3 °F 67.6 °F 30.1 in ESE 1 mph 2 mph 70 % 0 in
05:00 78.3 °F 67.3 °F 30.1 in ENE 1 mph 2 mph 69 % 0 in
05:10 78.4 °F 67.5 °F 30.1 in NE 2 mph 2 mph 69 % 0 in
05:20 78.3 °F 67.3 °F 30.1 in East 1 mph 2 mph 69 % 0 in
05:30 78.6 °F 67.3 °F 30.1 in ESE 1 mph 2 mph 68 % 0 in
05:40 78.3 °F 66.4 °F 30.1 in East 1 mph 4 mph 67 % 0 in
05:50 78.4 °F 66 °F 30.1 in NE 2 mph 3 mph 66 % 0 in
05:55 78.8 °F 66.9 °F 30.1 in ENE 1 mph 2 mph 67 % 0 in
10:56 78.8 °F 66 °F 30.1 in ESE 3.5 mph 3.5 mph 65 % 0 in
11:01 78.8 °F 66 °F 30.1 in ESE 6.9 mph 6.9 mph 65 % 0 in
11:06 78.8 °F 65.7 °F 30.1 in ESE 3.6 mph 3.6 mph 64 % 0 in
11:11 78.8 °F 66.6 °F 30.1 in SSW 6.9 mph 6.9 mph 66 % 0 in
11:16 79.2 °F 66.7 °F 30.1 in South 3.5 mph 3.5 mph 66 % 0 in
11:21 79.5 °F 67.3 °F 30.1 in SSW 3.5 mph 3.5 mph 66 % 0 in
11:26 79.5 °F 67.3 °F 30.1 in WSW 3.5 mph 3.5 mph 66 % 0 in
11:31 79.9 °F 67.1 °F 30.1 in SW 3.6 mph 3.6 mph 65 % 0 in
11:36 80.2 °F 67.5 °F 30.1 in SW 1.2 mph 1.4 mph 65 % 0 in
11:41 80.6 °F 67.3 °F 30.1 in SW 2.3 mph   64 % 0 in
11:42 80.6 °F 67.3 °F 30.1 in SW 1.2 mph   64 % 0 in
11:46 80.6 °F 66.7 °F 30.1 in ESE 3.5 mph 3.5 mph 63 % 0 in
11:51 80.6 °F 66.4 °F 30.1 in SE 4.6 mph 4.6 mph 62 % 0 in
11:56 80.2 °F 66 °F 30.1 in South 3.5 mph 3.5 mph 62 % 0 in
12:02 80.2 °F 65.7 °F 30.1 in South 5.8 mph 5.8 mph 61 % 0 in
12:07 81 °F 65.8 °F 30.1 in ESE 2.3 mph 2.3 mph 60 % 0 in
12:12 81 °F 65.8 °F 30.1 in South 3.5 mph 3.5 mph 60 % 0 in
12:17 81.3 °F 66 °F 30.1 in Calm   1.4 mph 60 % 0 in
12:22 81 °F 65.3 °F 30.1 in SSE 5.8 mph 5.8 mph 59 % 0 in
12:27 81 °F 65.3 °F 30.1 in ESE 5.4 mph 5.4 mph 59 % 0 in
12:32 81.3 °F 65.7 °F 30.1 in South 4.6 mph 4.6 mph 59 % 0 in
12:37 81.3 °F 65.7 °F 30.1 in SSE 3.5 mph 3.5 mph 59 % 0 in
12:42 82.2 °F 66.6 °F 30.1 in SSE 2.3 mph 2.4 mph 59 % 0 in
12:47 82.2 °F 66.6 °F 30.1 in ENE 5.8 mph 5.8 mph 59 % 0 in
12:52 81.7 °F 66 °F 30.1 in East 4.6 mph 4.6 mph 59 % 0 in
12:57 82.2 °F 66 °F 30.1 in East 10.4 mph 10.4 mph 58 % 0 in
13:02 81.9 °F 65.7 °F 30.1 in East 4.6 mph 4.6 mph 58 % 0 in
13:07 81.7 °F 64.9 °F 30.1 in SE 5.8 mph 5.8 mph 57 % 0 in
13:12 81.3 °F 64.6 °F 30.1 in ESE 4.7 mph 5.6 mph 57 % 0 in
13:17 81.5 °F 64.8 °F 30.1 in East 8.1 mph 8.1 mph 57 % 0 in
13:22 81.7 °F 64.6 °F 30.1 in ESE 8.1 mph 8.1 mph 56 % 0 in
13:27 81 °F 63.3 °F 30.1 in ENE 9.2 mph 9.2 mph 55 % 0 in
13:32 81.1 °F 64 °F 30.1 in NNE 4.6 mph 4.9 mph 56 % 0 in
13:37 80.6 °F 62.4 °F 30 in East 10.4 mph 10.4 mph 54 % 0 in
13:42 81.1 °F 63 °F 30 in South 5.8 mph 5.8 mph 54 % 0 in
13:47 81 °F 62.8 °F 30 in SE 8.1 mph 8.1 mph 54 % 0 in
13:52 80.6 °F 62.4 °F 30 in ESE 9.2 mph 9.2 mph 54 % 0 in
13:57 80.6 °F 62.4 °F 30 in ESE 5.8 mph 5.8 mph 54 % 0 in
14:02 80.8 °F 62.6 °F 30 in ESE 8.1 mph 8.1 mph 54 % 0 in
14:07 80.6 °F 61.9 °F 30 in ESE 6.9 mph 6.9 mph 53 % 0 in
14:12 81.1 °F 63 °F 30 in ENE 6.9 mph 6.9 mph 54 % 0 in
14:17 81.1 °F 62.4 °F 30 in ENE 7.8 mph 7.8 mph 53 % 0 in
14:22 81.3 °F 62.6 °F 30 in East 5.8 mph 5.8 mph 53 % 0 in
14:27 81.3 °F 62.6 °F 30 in ESE 8.1 mph 8.1 mph 53 % 0 in
14:32 81.9 °F 63.1 °F 30 in SE 4.6 mph 4.6 mph 53 % 0 in
14:37 82.4 °F 63.5 °F 30 in ESE 5.8 mph 5.8 mph 53 % 0 in
14:42 82 °F 62.8 °F 30 in ENE 5.8 mph 5.8 mph 52 % 0 in
14:47 82.2 °F 62.8 °F 30 in ESE 6 mph 6 mph 52 % 0 in
14:52 82 °F 62.8 °F 30 in South 6.9 mph 6.9 mph 52 % 0 in
14:57 82 °F 62.1 °F 30 in ESE 10.5 mph 10.5 mph 51 % 0 in
15:02 83.3 °F 63.9 °F 30 in SE 5.8 mph 5.8 mph 52 % 0 in
15:07 83.5 °F 63 °F 30 in ENE 6.9 mph 6.9 mph 50 % 0 in
15:12 83.1 °F 62.6 °F 30 in East 9.2 mph 9.2 mph 50 % 0 in
15:17 82.4 °F 61.9 °F 30 in South 9.2 mph 9.2 mph 50 % 0 in
15:22 83.7 °F 63 °F 30 in SE 11.5 mph 11.5 mph 50 % 0 in
15:27 82.9 °F 62.4 °F 30 in ESE 8.1 mph 8.1 mph 50 % 0 in
15:32 83.1 °F 62.6 °F 30 in SE 8.1 mph 8.1 mph 50 % 0 in
15:37 82.6 °F 62.1 °F 30 in ENE 11.5 mph 11.5 mph 50 % 0 in
15:42 82.2 °F 61.7 °F 30 in East 10.4 mph 10.4 mph 50 % 0 in
15:47 82 °F 62.1 °F 30 in NE 9.2 mph 9.2 mph 51 % 0 in
15:52 82.8 °F 62.8 °F 30 in South 5.8 mph 5.8 mph 51 % 0 in
15:57 82.8 °F 62.8 °F 30 in SW 4.6 mph 4.6 mph 51 % 0 in
16:02 82.4 °F 62.4 °F 30 in ESE 5.8 mph 5.8 mph 51 % 0 in
16:07 82.6 °F 62.6 °F 30 in SSE 7.1 mph 7.1 mph 51 % 0 in
16:12 82.8 °F 62.8 °F 30 in ESE 4.6 mph 4.6 mph 51 % 0 in
16:17 82.4 °F 62.4 °F 30 in ESE 3.5 mph 3.5 mph 51 % 0 in
16:22 83.1 °F 63.1 °F 30 in ESE 3.5 mph 3.5 mph 51 % 0 in
16:27 83.5 °F 63.3 °F 30 in ESE 5.8 mph 5.8 mph 51 % 0 in
16:32 82.6 °F 62.6 °F 30 in ESE 10.4 mph 10.4 mph 51 % 0 in
16:37 81.7 °F 61.9 °F 30 in ESE 9.2 mph 9.2 mph 51 % 0 in
16:42 81 °F 61.7 °F 30 in ESE 5.9 mph 6.9 mph 52 % 0 in
16:47 80.8 °F 61.5 °F 30 in SSW 11.5 mph 11.5 mph 52 % 0 in
16:52 80.8 °F 62.1 °F 30 in SE 7.8 mph 7.8 mph 53 % 0 in
16:57 80.1 °F 61.9 °F 30 in South 7.4 mph 8.7 mph 54 % 0 in
17:02 80.6 °F 62.4 °F 30 in SSE 5.8 mph 5.8 mph 54 % 0 in
17:07 80.1 °F 62.4 °F 30 in SSE 4.6 mph 4.7 mph 55 % 0 in
17:12 80.1 °F 62.4 °F 30 in ENE 5.8 mph 5.8 mph 55 % 0 in
17:17 79.9 °F 62.8 °F 30 in ESE 8.7 mph 8.7 mph 56 % 0 in
17:22 79.3 °F 62.8 °F 30 in ESE 6.4 mph 6.4 mph 57 % 0 in
17:27 79.3 °F 62.8 °F 30 in NE 5.8 mph 5.8 mph 57 % 0 in
17:32 79.9 °F 63.3 °F 30 in SE 3.8 mph 4 mph 57 % 0 in
17:37 81.1 °F 64 °F 30 in SE 3.5 mph 3.5 mph 56 % 0 in
17:42 81.3 °F 63.7 °F 30 in WSW 8.1 mph 8.1 mph 55 % 0 in
17:47 81 °F 62.8 °F 30 in SW 8.1 mph 8.1 mph 54 % 0 in
17:52 81.3 °F 63.1 °F 30 in SSE 8.1 mph 8.1 mph 54 % 0 in
17:57 81 °F 62.8 °F 30 in West 5.8 mph 5.8 mph 54 % 0 in
18:02 80.8 °F 62.6 °F 30 in WSW 5.8 mph 5.8 mph 54 % 0 in
18:07 80.8 °F 63.1 °F 30 in SSW 4.9 mph 4.9 mph 55 % 0 in
18:12 80.4 °F 63.3 °F 30 in SSW 5.8 mph 5.8 mph 56 % 0 in
18:17 80.1 °F 63 °F 30 in South 9.2 mph 9.2 mph 56 % 0 in
18:22 79.7 °F 62.6 °F 30 in South 6.9 mph 6.9 mph 56 % 0 in
18:27 79.5 °F 62.4 °F 30 in SW 8.1 mph 8.1 mph 56 % 0 in
18:32 79.2 °F 62.1 °F 30 in SW 8.1 mph 8.1 mph 56 % 0 in
18:37 78.6 °F 61.5 °F 30 in SW 10 mph 10 mph 56 % 0 in
18:42 78.4 °F 61.9 °F 30 in SSE 8.1 mph 8.1 mph 57 % 0 in
18:47 77.9 °F 61.9 °F 30 in WSW 7.8 mph 7.8 mph 58 % 0 in
18:52 74.3 °F 62.2 °F 30 in SSW 23 mph 23 mph 66 % 0 in
18:57 70.2 °F 59.9 °F 30 in SSW 9.2 mph 9.2 mph 70 % 0 in
19:02 68.7 °F 60.1 °F 30 in SW 17.5 mph 17.5 mph 74 % 0.05 in
19:07 66.9 °F 59.2 °F 30 in West 9.2 mph 9.2 mph 76 % 0.05 in
19:12 66.4 °F 58.6 °F 30 in SW 6.9 mph 6.9 mph 76 % 0.05 in
19:17 66.6 °F 59.2 °F 30 in West 2.3 mph 2.3 mph 77 % 0.13 in
19:22 66.7 °F 60.1 °F 30 in NNE 2.3 mph 2.3 mph 79 % 0.13 in
19:27 66.7 °F 60.4 °F 30 in NE 3.5 mph 3.5 mph 80 % 0.13 in
19:32 67.1 °F 61.2 °F 30 in WNW 1.4 mph   81 % 0.17 in
19:37 66.9 °F 60.4 °F 29.9 in WNW 1.4 mph 1.4 mph 80 % 0.17 in
19:42 66.9 °F 61.2 °F 29.9 in NE 2.3 mph 2.3 mph 82 % 0.21 in
19:47 66.9 °F 61.5 °F 29.9 in NNE 4.9 mph 4.9 mph 83 % 0.21 in
19:52 66.7 °F 61.3 °F 29.9 in ENE 5.8 mph 5.8 mph 83 % 0.21 in
19:57 66.7 °F 61.7 °F 29.9 in NE 5.8 mph 5.8 mph 84 % 0.21 in
20:02 66.4 °F 61.3 °F 29.9 in NNE 8.1 mph 8.1 mph 84 % 0.16 in
20:07 66.9 °F 62.2 °F 29.9 in ENE 4.6 mph 4.6 mph 85 % 0.16 in
20:12 66.6 °F 62.2 °F 29.9 in WNW 4.6 mph 4.6 mph 86 % 0.16 in
20:15 65.7 °F 63.3 °F 30 in Calm     92 % 0 in
20:17 66.7 °F 62.8 °F 29.9 in North 5.8 mph 5.8 mph 87 % 0.08 in
20:22 66.7 °F 62.4 °F 29.9 in SW 2.9 mph 2.9 mph 86 % 0.08 in
20:25 65.7 °F 63.3 °F 30 in Calm     92 % 0 in
20:27 66.9 °F 63 °F 29.9 in ENE 2.3 mph 2.3 mph 87 % 0.08 in
20:32 66.9 °F 63 °F 29.9 in ENE 1.2 mph   87 % 0.04 in
20:35 65.5 °F 63.1 °F 30 in Calm     92 % 0 in
20:37 67.1 °F 63.1 °F 29.9 in SW 2.6 mph 2.6 mph 87 % 0.04 in
20:42 66.9 °F 63 °F 29.9 in SW 2.3 mph   87 % 0 in
20:45 65.3 °F 63 °F 30 in Calm     92 % 0 in
20:47 66.9 °F 62.6 °F 29.9 in WSW 2.3 mph 2.3 mph 86 % 0 in
20:52 66.9 °F 62.6 °F 29.9 in SW 2.9 mph 2.9 mph 86 % 0 in
20:55 65.1 °F 62.8 °F 30 in Calm     92 % 0 in
20:57 66.7 °F 62.8 °F 29.9 in SW 2.3 mph 2.3 mph 87 % 0 in
21:02 66.6 °F 62.6 °F 29.9 in SW 2.3 mph 2.3 mph 87 % 0 in
21:05 65.1 °F 62.8 °F 30 in Calm     92 % 0 in
21:07 66.4 °F 62.4 °F 29.9 in SW 1.2 mph 1.2 mph 87 % 0 in
21:12 66.4 °F 62.1 °F 29.9 in WSW 4.6 mph 4.6 mph 86 % 0 in
21:15 64.9 °F 63 °F 30 in Calm     93 % 0 in
21:17 66.4 °F 62.4 °F 29.9 in West 2.3 mph 2.3 mph 87 % 0 in
21:22 66.2 °F 62.2 °F 29.9 in SW 3.6 mph 3.6 mph 87 % 0 in
21:25 64.9 °F 63 °F 30 in Calm     93 % 0 in
21:27 66.2 °F 61.9 °F 29.9 in SW 3.1 mph 3.1 mph 86 % 0 in
21:28 66.2 °F 61.9 °F 29.9 in West 2.3 mph 2.6 mph 86 % 0 in
21:33 66.4 °F 62.4 °F 29.9 in NNE 1.2 mph   87 % 0 in
21:35 64.9 °F 63 °F 30 in Calm     93 % 0 in
21:38 66.4 °F 62.8 °F 29.9 in NNE 2.3 mph 2.3 mph 88 % 0 in
21:43 66.4 °F 62.8 °F 29.9 in NNE 2.3 mph 2.3 mph 88 % 0 in
21:45 64.9 °F 63 °F 30 in Calm     93 % 0 in
21:48 66.4 °F 63 °F 29.9 in ENE 2.3 mph 2.3 mph 89 % 0 in
21:53 66.2 °F 63 °F 30 in NE 2.3 mph 2.4 mph 89 % 0 in
21:55 64.8 °F 62.8 °F 30 in Calm     93 % 0 in
21:58 66.4 °F 63 °F 30 in NE 3.5 mph 3.5 mph 89 % 0 in
22:03 66.4 °F 63 °F 30 in Calm     89 % 0 in
22:05 64.6 °F 62.4 °F 30 in Calm     93 % 0 in
22:08 66.4 °F 63 °F 30 in Calm     89 % 0 in
22:13 66.4 °F 63 °F 30 in NE 1.6 mph   89 % 0 in
22:15 64.4 °F 62.2 °F 30 in Calm     93 % 0 in
22:18 66.6 °F 63.1 °F 30 in ENE 2.3 mph 2.3 mph 89 % 0 in
22:23 66.6 °F 63.1 °F 30 in NE 1.2 mph   89 % 0 in
22:25 64.4 °F 62.2 °F 30 in Calm     93 % 0 in
22:28 66.6 °F 63.1 °F 30 in ENE 2.3 mph 2.3 mph 89 % 0 in
22:33 66.6 °F 63.5 °F 30 in NE 2.3 mph 2.3 mph 90 % 0 in
22:35 64.4 °F 62.2 °F 30 in Calm     93 % 0 in
22:38 66.4 °F 63.3 °F 30 in Calm     90 % 0 in
22:43 66.4 °F 63 °F 30 in SW 2.3 mph 2.3 mph 89 % 0 in
22:45 64.4 °F 62.2 °F 30 in Calm     93 % 0 in
22:48 66.2 °F 63 °F 30 in SW 2.3 mph 2.3 mph 89 % 0 in
22:53 66.2 °F 63 °F 30 in WSW 2.3 mph 2.3 mph 89 % 0 in
22:55 64.4 °F 62.2 °F 30 in Calm     93 % 0 in
22:58 66.2 °F 63 °F 30 in Calm     89 % 0 in
23:03 66.2 °F 63.1 °F 30 in Calm     90 % 0 in
23:05 64 °F 62.2 °F 29.9 in Calm     94 % 0 in
23:08 66.2 °F 63.1 °F 30 in WSW 1.6 mph 1.6 mph 90 % 0 in
23:13 66.2 °F 63 °F 30 in SW 2.3 mph 2.3 mph 89 % 0 in
23:15 63.7 °F 61.5 °F 29.9 in Calm     93 % 0 in
23:18 66 °F 63 °F 30 in West 2.2 mph   90 % 0 in
23:23 66.2 °F 63 °F 30 in SW 2.3 mph 2.3 mph 89 % 0 in
23:25 63.5 °F 61.3 °F 30 in Calm     93 % 0 in
23:28 66.2 °F 63.1 °F 30 in Calm     90 % 0 in
23:33 66 °F 63.3 °F 30 in Calm     91 % 0 in
23:35 63.3 °F 61.3 °F 29.9 in SW 1 mph 2 mph 93 % 0 in
23:38 66.2 °F 63.1 °F 30 in Calm     90 % 0 in
23:43 66.2 °F 63.1 °F 30 in Calm     90 % 0 in
23:45 63.1 °F 61.2 °F 29.9 in SW 1 mph 2 mph 93 % 0 in
23:48 66.2 °F 63.1 °F 30 in Calm     90 % 0 in
23:53 66 °F 63.3 °F 30 in Calm     91 % 0 in
23:55 63.1 °F 61.3 °F 30 in Calm   1 mph 94 % 0 in
23:58 66.2 °F 63.1 °F 30 in Calm     90 % 0 in
Meteo Sesrovires
Elogis d' Weather Underground - 3.75 mb

Guio original per  Jim McMurry - jmcmurry@mwt.net Adaptat per a la plantilla per  Wim van der Kuil - Leuven-Template.eu

Trobareu la nostra informacio del temps tambe a:

Weather Underground

AWEKAS